Time;durP1;ratioP1;P1;durP2;ratioP2;P2;SDS_P1;SDS_P2;PMS_P1;PMS_P2;Temp;Humidity;BMP_temperature;BMP_pressure;BME280_temperature;BME280_humidity;BME280_pressure;Samples;Min_cycle;Max_cycle;Signal;HPM_P1;HPM_P2
2021/07/25 00:02:23;;;;;;;5.22;4.72;;;;;;;;;;5024692;28;20030;-70
2021/07/25 00:04:49;;;;;;;6.75;5.68;;;;;;;;;;5026547;28;20021;-70
2021/07/25 00:07:16;;;;;;;6.65;5.20;;;;;;;;;;5026496;28;20026;-70
2021/07/25 00:09:42;;;;;;;5.63;5.03;;;;;;;;;;5025062;28;20108;-70
2021/07/25 00:12:08;;;;;;;6.65;5.07;;;;;;;;;;5026526;28;20021;-70
2021/07/25 00:14:34;;;;;;;6.65;4.95;;;;;;;;;;5025993;28;20033;-82
2021/07/25 00:17:00;;;;;;;8.18;5.18;;;;;;;;;;5026483;28;20028;-70
2021/07/25 00:19:27;;;;;;;7.22;4.45;;;;;;;;;;5026210;28;20052;-70
2021/07/25 00:21:54;;;;;;;6.85;4.68;;;;;;;;;;5026280;28;20112;-70
2021/07/25 00:24:28;;;;;;;5.68;4.82;;;;;;;;;;5024867;28;20061;-73
2021/07/25 00:26:56;;;;;;;6.72;4.68;;;;;;;;;;5026222;28;20022;-75
2021/07/25 00:29:25;;;;;;;7.38;4.80;;;;;;;;;;5026032;28;20042;-69
2021/07/25 00:31:51;;;;;;;6.22;4.40;;;;;;;;;;5026147;28;20021;-70
2021/07/25 00:34:17;;;;;;;6.47;4.78;;;;;;;;;;5024716;28;20021;-70
2021/07/25 00:36:43;;;;;;;5.38;4.40;;;;;;;;;;5026089;28;20619;-71
2021/07/25 00:39:10;;;;;;;4.57;4.07;;;;;;;;;;5026234;28;20549;-81
2021/07/25 00:41:37;;;;;;;6.18;4.57;;;;;;;;;;5025916;28;20045;-70
2021/07/25 00:44:03;;;;;;;6.07;4.90;;;;;;;;;;5026474;28;20505;-70
2021/07/25 00:46:30;;;;;;;7.82;4.60;;;;;;;;;;5024775;28;20025;-72
2021/07/25 00:48:57;;;;;;;6.13;5.05;;;;;;;;;;5025894;28;20040;-70
2021/07/25 00:51:23;;;;;;;6.53;5.35;;;;;;;;;;5025667;28;20021;-69
2021/07/25 00:53:50;;;;;;;8.18;5.75;;;;;;;;;;5026124;28;20087;-70
2021/07/25 00:56:16;;;;;;;8.95;6.30;;;;;;;;;;5024682;28;20029;-70
2021/07/25 00:58:43;;;;;;;7.15;5.72;;;;;;;;;;5026335;28;20027;-70
2021/07/25 01:01:10;;;;;;;5.85;5.25;;;;;;;;;;5029467;28;20034;-73
2021/07/25 01:03:57;;;;;;;7.50;5.45;;;;;;;;;;5029624;28;20032;-69
2021/07/25 01:06:42;;;;;;;10.95;5.50;;;;;;;;;;5031905;28;20017;-70
2021/07/25 01:09:17;;;;;;;7.75;5.70;;;;;;;;;;5048073;28;20086;-71
2021/07/25 01:11:47;;;;;;;8.25;6.03;;;;;;;;;;5049102;28;20078;-74
2021/07/25 01:14:19;;;;;;;8.07;6.05;;;;;;;;;;5049231;28;20441;-69
2021/07/25 01:16:45;;;;;;;7.82;5.70;;;;;;;;;;5049298;28;20032;-70
2021/07/25 01:19:11;;;;;;;7.47;5.88;;;;;;;;;;5047632;28;20045;-70
2021/07/25 01:21:38;;;;;;;6.93;5.85;;;;;;;;;;5049180;28;20489;-73
2021/07/25 01:24:04;;;;;;;7.03;5.40;;;;;;;;;;5049336;28;20033;-70
2021/07/25 01:26:31;;;;;;;14.65;6.05;;;;;;;;;;5049123;28;20020;-69
2021/07/25 01:28:59;;;;;;;8.38;5.68;;;;;;;;;;5047810;28;20032;-70
2021/07/25 01:31:30;;;;;;;6.25;5.63;;;;;;;;;;5048809;28;20021;-69
2021/07/25 01:33:56;;;;;;;6.90;5.30;;;;;;;;;;5048955;28;20024;-73
2021/07/25 01:36:23;;;;;;;7.13;6.38;;;;;;;;;;5049146;28;20021;-70
2021/07/25 01:38:49;;;;;;;6.90;5.68;;;;;;;;;;5048651;28;20017;-69
2021/07/25 01:41:16;;;;;;;6.63;5.88;;;;;;;;;;5047181;28;20436;-70
2021/07/25 01:43:43;;;;;;;10.90;6.07;;;;;;;;;;5048680;28;20021;-70
2021/07/25 01:46:10;;;;;;;8.68;6.82;;;;;;;;;;5048941;28;20666;-81
2021/07/25 01:48:36;;;;;;;8.60;6.30;;;;;;;;;;5048420;28;20044;-70
2021/07/25 01:51:02;;;;;;;6.70;6.00;;;;;;;;;;5048680;28;20021;-70
2021/07/25 01:53:28;;;;;;;7.15;6.30;;;;;;;;;;5048515;28;20392;-70
2021/07/25 01:55:55;;;;;;;7.97;5.80;;;;;;;;;;5046939;28;20021;-70
2021/07/25 01:58:21;;;;;;;6.60;5.03;;;;;;;;;;5048446;28;20029;-70
2021/07/25 02:00:47;;;;;;;6.18;5.10;;;;;;;;;;5048313;28;20381;-69
2021/07/25 02:03:18;;;;;;;6.85;5.43;;;;;;;;;;5048552;28;20029;-70
2021/07/25 02:05:44;;;;;;;8.25;5.18;;;;;;;;;;5048118;28;20065;-73
2021/07/25 02:08:10;;;;;;;8.63;5.53;;;;;;;;;;5048377;28;20029;-70
2021/07/25 02:10:37;;;;;;;5.22;4.72;;;;;;;;;;5045545;28;20355;-69
2021/07/25 02:13:03;;;;;;;10.77;5.40;;;;;;;;;;5048626;28;20047;-70
2021/07/25 02:15:29;;;;;;;6.10;4.97;;;;;;;;;;5048248;28;20032;-75
2021/07/25 02:17:55;;;;;;;6.65;4.90;;;;;;;;;;5047936;28;20100;-70
2021/07/25 02:20:21;;;;;;;6.95;5.00;;;;;;;;;;5048003;28;20041;-68
2021/07/25 02:22:47;;;;;;;6.13;4.65;;;;;;;;;;5048150;28;20025;-70
2021/07/25 02:25:14;;;;;;;5.20;4.70;;;;;;;;;;5046489;28;20107;-71
2021/07/25 02:27:40;;;;;;;6.18;4.78;;;;;;;;;;5047769;28;20507;-70
2021/07/25 02:30:06;;;;;;;6.22;4.60;;;;;;;;;;5048107;28;20043;-70
2021/07/25 02:32:32;;;;;;;6.85;4.20;;;;;;;;;;5047835;28;20032;-72
2021/07/25 02:34:59;;;;;;;5.72;4.45;;;;;;;;;;5046023;28;20025;-74
2021/07/25 02:37:25;;;;;;;6.45;4.47;;;;;;;;;;5047989;28;20025;-74
2021/07/25 02:39:51;;;;;;;7.32;4.88;;;;;;;;;;5047309;28;20082;-70
2021/07/25 02:42:17;;;;;;;4.80;4.25;;;;;;;;;;5046331;28;20048;-74
2021/07/25 02:44:43;;;;;;;8.20;4.90;;;;;;;;;;5047681;28;20031;-70
2021/07/25 02:47:09;;;;;;;6.07;4.88;;;;;;;;;;5047612;28;20021;-70
2021/07/25 02:49:35;;;;;;;4.60;4.10;;;;;;;;;;5047397;28;20095;-71
2021/07/25 02:52:02;;;;;;;5.90;4.90;;;;;;;;;;5045631;28;20373;-70
2021/07/25 02:54:28;;;;;;;5.25;4.75;;;;;;;;;;5047421;28;20033;-69
2021/07/25 02:56:55;;;;;;;5.53;4.82;;;;;;;;;;5047498;28;20045;-75
2021/07/25 02:59:21;;;;;;;7.85;5.60;;;;;;;;;;5047324;28;20047;-70
2021/07/25 03:01:49;;;;;;;5.78;5.05;;;;;;;;;;5042383;28;20531;-70
2021/07/25 03:04:15;;;;;;;6.93;5.03;;;;;;;;;;5017733;28;20041;-69
2021/07/25 03:06:41;;;;;;;7.63;5.20;;;;;;;;;;5041487;28;20029;-69
2021/07/25 03:09:07;;;;;;;6.20;4.95;;;;;;;;;;5042153;28;20382;-69
2021/07/25 03:11:33;;;;;;;7.25;5.57;;;;;;;;;;5040555;28;20572;-69
2021/07/25 03:14:00;;;;;;;11.68;5.72;;;;;;;;;;5041251;28;20439;-69
2021/07/25 03:16:26;;;;;;;6.50;5.22;;;;;;;;;;5040950;28;20132;-69
2021/07/25 03:18:52;;;;;;;7.22;5.63;;;;;;;;;;5042592;28;20061;-69
2021/07/25 03:21:18;;;;;;;7.00;5.43;;;;;;;;;;5040243;28;20531;-69
2021/07/25 03:23:45;;;;;;;7.32;5.82;;;;;;;;;;5042134;28;20032;-70
2021/07/25 03:26:11;;;;;;;6.70;5.35;;;;;;;;;;5041989;28;20017;-69
2021/07/25 03:28:37;;;;;;;5.93;5.32;;;;;;;;;;5041949;28;20043;-69
2021/07/25 03:31:03;;;;;;;6.25;5.65;;;;;;;;;;5041935;28;20025;-70
2021/07/25 03:33:29;;;;;;;7.85;5.65;;;;;;;;;;5040606;28;20029;-70
2021/07/25 03:35:55;;;;;;;6.57;5.47;;;;;;;;;;5041793;28;20021;-71
2021/07/25 03:38:21;;;;;;;8.85;5.47;;;;;;;;;;5041543;28;20540;-70
2021/07/25 03:40:49;;;;;;;8.40;5.57;;;;;;;;;;5042193;28;20071;-70
2021/07/25 03:43:15;;;;;;;8.63;5.88;;;;;;;;;;5040248;28;20029;-70
2021/07/25 03:45:43;;;;;;;7.28;5.70;;;;;;;;;;5042162;28;20021;-70
2021/07/25 03:48:09;;;;;;;7.57;5.60;;;;;;;;;;5041946;28;20040;-76
2021/07/25 03:50:35;;;;;;;5.78;5.10;;;;;;;;;;5041514;28;20021;-70
2021/07/25 03:53:02;;;;;;;8.10;5.93;;;;;;;;;;5040007;28;20133;-70
2021/07/25 03:55:28;;;;;;;8.25;6.22;;;;;;;;;;5041560;28;20045;-70
2021/07/25 03:57:56;;;;;;;9.30;5.47;;;;;;;;;;5041427;28;20419;-70
2021/07/25 04:00:22;;;;;;;6.57;5.20;;;;;;;;;;5041257;28;20358;-70
2021/07/25 04:02:48;;;;;;;7.03;5.10;;;;;;;;;;5040286;28;20025;-70
2021/07/25 04:05:14;;;;;;;6.40;5.63;;;;;;;;;;5041695;28;20024;-71
2021/07/25 04:07:40;;;;;;;7.30;5.30;;;;;;;;;;5041885;28;20013;-70
2021/07/25 04:10:07;;;;;;;5.50;4.97;;;;;;;;;;5041550;28;20028;-70
2021/07/25 04:12:33;;;;;;;6.82;5.28;;;;;;;;;;5041865;28;20027;-70
2021/07/25 04:15:01;;;;;;;7.40;5.05;;;;;;;;;;5040630;28;20082;-70
2021/07/25 04:17:28;;;;;;;5.72;5.10;;;;;;;;;;5041645;28;20473;-70
2021/07/25 04:19:54;;;;;;;7.20;5.28;;;;;;;;;;5041570;28;20102;-70
2021/07/25 04:22:20;;;;;;;6.50;4.93;;;;;;;;;;5041546;28;20111;-70
2021/07/25 04:24:47;;;;;;;7.15;5.57;;;;;;;;;;5040208;28;20104;-70
2021/07/25 04:27:13;;;;;;;5.80;5.20;;;;;;;;;;5039942;28;20029;-70
2021/07/25 04:29:40;;;;;;;6.75;5.28;;;;;;;;;;5041332;28;20156;-70
2021/07/25 04:32:07;;;;;;;7.40;5.25;;;;;;;;;;5041009;28;20567;-70
2021/07/25 04:34:33;;;;;;;6.30;5.10;;;;;;;;;;5044056;28;20029;-70
2021/07/25 04:37:01;;;;;;;5.90;4.85;;;;;;;;;;5043862;28;20023;-70
2021/07/25 04:39:27;;;;;;;6.32;5.43;;;;;;;;;;5045039;28;20563;-70
2021/07/25 04:41:56;;;;;;;8.40;5.32;;;;;;;;;;5045219;28;20017;-71
2021/07/25 04:44:22;;;;;;;8.30;4.90;;;;;;;;;;5043776;28;20108;-70
2021/07/25 04:46:52;;;;;;;7.75;5.25;;;;;;;;;;5044742;28;20021;-70
2021/07/25 04:49:19;;;;;;;6.10;4.75;;;;;;;;;;5044925;28;20449;-70
2021/07/25 04:51:47;;;;;;;7.80;4.80;;;;;;;;;;5043507;28;20421;-70
2021/07/25 04:54:15;;;;;;;5.80;4.60;;;;;;;;;;5045265;28;20571;-70
2021/07/25 04:56:56;;;;;;;6.88;5.43;;;;;;;;;;5043178;28;20106;-70
2021/07/25 04:59:25;;;;;;;7.07;5.10;;;;;;;;;;5045212;28;20111;-70
2021/07/25 05:01:53;;;;;;;6.43;5.40;;;;;;;;;;5045060;28;20029;-70
2021/07/25 05:04:22;;;;;;;6.20;5.32;;;;;;;;;;5044969;28;20046;-70
2021/07/25 05:06:48;;;;;;;6.68;5.38;;;;;;;;;;5044547;28;20049;-70
2021/07/25 05:09:14;;;;;;;7.28;5.25;;;;;;;;;;5045126;28;20528;-71
2021/07/25 05:12:05;;;;;;;6.65;4.93;;;;;;;;;;5043269;28;20211;-70
2021/07/25 05:14:36;;;;;;;5.72;5.13;;;;;;;;;;5041640;28;20130;-70
2021/07/25 05:17:08;;;;;;;6.50;5.18;;;;;;;;;;5044420;28;20032;-70
2021/07/25 05:19:34;;;;;;;6.65;5.88;;;;;;;;;;5042579;28;20033;-70
2021/07/25 05:22:12;;;;;;;7.90;5.15;;;;;;;;;;5044473;28;20036;-70
2021/07/25 05:24:43;;;;;;;8.57;5.60;;;;;;;;;;5044664;28;20024;-70
2021/07/25 05:27:13;;;;;;;10.63;6.32;;;;;;;;;;5044454;28;20033;-70
2021/07/25 05:29:39;;;;;;;6.88;6.05;;;;;;;;;;5044375;28;20033;-70
2021/07/25 05:32:06;;;;;;;7.95;5.82;;;;;;;;;;5043012;28;20029;-71
2021/07/25 05:34:32;;;;;;;8.02;6.13;;;;;;;;;;5044110;28;20436;-70
2021/07/25 05:36:58;;;;;;;6.65;6.00;;;;;;;;;;5044015;28;20032;-70
2021/07/25 05:39:24;;;;;;;6.75;6.05;;;;;;;;;;5043817;28;20477;-70
2021/07/25 05:41:50;;;;;;;10.80;6.97;;;;;;;;;;5043999;28;20081;-70
2021/07/25 05:44:16;;;;;;;15.60;10.77;;;;;;;;;;5042121;28;20033;-71
2021/07/25 05:46:43;;;;;;;12.30;8.93;;;;;;;;;;5043066;28;20021;-70
2021/07/25 05:49:09;;;;;;;12.63;10.75;;;;;;;;;;5043705;28;20048;-70
2021/07/25 05:51:36;;;;;;;15.60;10.00;;;;;;;;;;5043638;28;20025;-70
2021/07/25 05:54:02;;;;;;;11.35;8.82;;;;;;;;;;5043976;28;20060;-80
2021/07/25 05:56:28;;;;;;;8.52;7.57;;;;;;;;;;5042796;28;20021;-70
2021/07/25 05:58:55;;;;;;;9.80;7.70;;;;;;;;;;5043743;28;20031;-70
2021/07/25 06:01:21;;;;;;;9.48;7.88;;;;;;;;;;5043846;28;20028;-70
2021/07/25 06:03:47;;;;;;;8.23;7.40;;;;;;;;;;5043422;28;20476;-70
2021/07/25 06:06:13;;;;;;;10.80;7.25;;;;;;;;;;5042340;28;20017;-71
2021/07/25 06:08:39;;;;;;;8.05;7.00;;;;;;;;;;5043383;28;20040;-70
2021/07/25 06:11:05;;;;;;;8.07;6.50;;;;;;;;;;5043340;28;20047;-70
2021/07/25 06:13:32;;;;;;;8.73;6.45;;;;;;;;;;5043462;28;20021;-70
2021/07/25 06:15:58;;;;;;;8.63;6.63;;;;;;;;;;5043148;28;20032;-70
2021/07/25 06:18:24;;;;;;;9.55;6.82;;;;;;;;;;5043336;28;20029;-70
2021/07/25 06:20:50;;;;;;;8.43;6.90;;;;;;;;;;5041636;28;20029;-70
2021/07/25 06:23:16;;;;;;;11.55;7.00;;;;;;;;;;5043729;28;20024;-70
2021/07/25 06:25:42;;;;;;;9.20;6.18;;;;;;;;;;5043511;28;20021;-71
2021/07/25 06:28:09;;;;;;;9.13;6.63;;;;;;;;;;5042951;28;20041;-70
2021/07/25 06:30:35;;;;;;;12.02;6.63;;;;;;;;;;5043086;28;20075;-71
2021/07/25 06:33:03;;;;;;;8.73;5.80;;;;;;;;;;5041308;28;20554;-70
2021/07/25 06:35:30;;;;;;;10.68;6.38;;;;;;;;;;5043095;28;20029;-70
2021/07/25 06:37:57;;;;;;;13.65;6.75;;;;;;;;;;5043218;28;20072;-72
2021/07/25 06:40:25;;;;;;;8.15;6.43;;;;;;;;;;5042912;28;20032;-70
2021/07/25 06:42:51;;;;;;;9.88;6.22;;;;;;;;;;5041031;28;20041;-70
2021/07/25 06:45:17;;;;;;;7.38;5.38;;;;;;;;;;5042592;28;20497;-70
2021/07/25 06:47:50;;;;;;;7.97;6.07;;;;;;;;;;5042466;28;20131;-70
2021/07/25 06:50:17;;;;;;;6.45;5.70;;;;;;;;;;5041144;28;20100;-70
2021/07/25 06:52:44;;;;;;;6.78;5.88;;;;;;;;;;5040889;28;20021;-70
2021/07/25 06:55:11;;;;;;;8.13;6.00;;;;;;;;;;5042356;28;20025;-70
2021/07/25 06:57:37;;;;;;;8.55;7.00;;;;;;;;;;5042255;28;20024;-70
2021/07/25 07:00:04;;;;;;;7.70;6.55;;;;;;;;;;5042399;28;20394;-70
2021/07/25 07:02:45;;;;;;;7.78;6.15;;;;;;;;;;5040719;28;20021;-70
2021/07/25 07:05:11;;;;;;;7.50;6.53;;;;;;;;;;5028871;28;20033;-70
2021/07/25 07:07:38;;;;;;;13.13;6.93;;;;;;;;;;5038253;28;20016;-70
2021/07/25 07:10:04;;;;;;;7.88;6.30;;;;;;;;;;5034591;28;20044;-70
2021/07/25 07:12:30;;;;;;;8.20;6.50;;;;;;;;;;5037337;28;20013;-70
2021/07/25 07:14:56;;;;;;;7.90;6.40;;;;;;;;;;5016396;28;20099;-70
2021/07/25 07:17:22;;;;;;;7.60;6.72;;;;;;;;;;5002891;28;20081;-70
2021/07/25 07:19:49;;;;;;;10.25;6.60;;;;;;;;;;5006758;28;20112;-70
2021/07/25 07:22:31;;;;;;;9.40;7.47;;;;;;;;;;5003860;28;20418;-71
2021/07/25 07:24:57;;;;;;;10.20;6.95;;;;;;;;;;5016192;28;20018;-69
2021/07/25 07:27:25;;;;;;;9.73;6.38;;;;;;;;;;5005987;28;20048;-70
2021/07/25 07:29:52;;;;;;;10.70;6.80;;;;;;;;;;5010911;28;20110;-70
2021/07/25 07:32:18;;;;;;;15.77;6.53;;;;;;;;;;5005626;28;20018;-70
2021/07/25 07:34:44;;;;;;;9.68;6.68;;;;;;;;;;5006017;28;20048;-70
2021/07/25 07:37:10;;;;;;;11.27;6.72;;;;;;;;;;5004196;28;20105;-70
2021/07/25 07:39:38;;;;;;;11.23;7.20;;;;;;;;;;5004257;28;20022;-70
2021/07/25 07:42:08;;;;;;;7.50;5.50;;;;;;;;;;5002316;28;20036;-71
2021/07/25 07:44:34;;;;;;;9.57;6.60;;;;;;;;;;5001788;28;20018;-69
2021/07/25 07:47:00;;;;;;;9.63;6.40;;;;;;;;;;5015021;28;20032;-71
2021/07/25 07:49:27;;;;;;;8.38;6.78;;;;;;;;;;5026964;28;20065;-71
2021/07/25 07:51:53;;;;;;;10.23;6.72;;;;;;;;;;5030354;28;20520;-71
2021/07/25 07:54:19;;;;;;;9.73;6.07;;;;;;;;;;5028231;28;20026;-72
2021/07/25 07:56:45;;;;;;;10.07;6.65;;;;;;;;;;5027256;28;20021;-71
2021/07/25 07:59:11;;;;;;;9.55;6.57;;;;;;;;;;5028788;28;20032;-71
2021/07/25 08:01:38;;;;;;;8.90;7.10;;;;;;;;;;5025835;28;20385;-71
2021/07/25 08:04:04;;;;;;;7.43;6.35;;;;;;;;;;5021437;28;20515;-72
2021/07/25 08:06:30;;;;;;;9.93;6.80;;;;;;;;;;5026947;28;20025;-72
2021/07/25 08:08:56;;;;;;;7.47;6.75;;;;;;;;;;5031468;28;20094;-71
2021/07/25 08:11:22;;;;;;;9.73;6.88;;;;;;;;;;5012951;28;20540;-72
2021/07/25 08:13:48;;;;;;;10.98;6.35;;;;;;;;;;5010021;28;20111;-71
2021/07/25 08:16:14;;;;;;;11.48;7.05;;;;;;;;;;5012827;28;20025;-72
2021/07/25 08:18:41;;;;;;;8.35;7.32;;;;;;;;;;5008258;28;20056;-71
2021/07/25 08:21:07;;;;;;;7.38;5.95;;;;;;;;;;5007188;28;20029;-71
2021/07/25 08:23:34;;;;;;;7.80;6.80;;;;;;;;;;5011015;28;20057;-72
2021/07/25 08:26:01;;;;;;;7.70;6.78;;;;;;;;;;5011047;28;20073;-73
2021/07/25 08:28:27;;;;;;;9.70;6.93;;;;;;;;;;5010125;28;20045;-72
2021/07/25 08:30:54;;;;;;;9.02;7.50;;;;;;;;;;5008266;28;20482;-72
2021/07/25 08:33:20;;;;;;;7.75;6.65;;;;;;;;;;5010236;28;20048;-73
2021/07/25 08:35:46;;;;;;;10.15;6.65;;;;;;;;;;5014699;28;20054;-72
2021/07/25 08:38:13;;;;;;;6.97;6.28;;;;;;;;;;5020135;28;20036;-73
2021/07/25 08:40:40;;;;;;;11.07;6.72;;;;;;;;;;5012842;28;20022;-73
2021/07/25 08:43:13;;;;;;;10.25;6.90;;;;;;;;;;5017076;28;20160;-74
2021/07/25 08:45:44;;;;;;;11.10;6.63;;;;;;;;;;5030846;28;20108;-74
2021/07/25 08:48:12;;;;;;;8.45;6.75;;;;;;;;;;5032886;28;20032;-73
2021/07/25 08:50:43;;;;;;;11.27;6.47;;;;;;;;;;5025785;28;20029;-75
2021/07/25 08:53:14;;;;;;;10.73;6.30;;;;;;;;;;5025831;28;20055;-76
2021/07/25 08:55:41;;;;;;;13.48;6.68;;;;;;;;;;5029353;28;20025;-73
2021/07/25 08:58:07;;;;;;;8.85;6.40;;;;;;;;;;5023815;28;20050;-73
2021/07/25 09:00:35;;;;;;;9.00;6.32;;;;;;;;;;5024534;28;20025;-73
2021/07/25 09:03:03;;;;;;;9.88;6.80;;;;;;;;;;5022724;28;20032;-73
2021/07/25 09:05:29;;;;;;;8.57;6.25;;;;;;;;;;5022066;28;20017;-75
2021/07/25 09:07:55;;;;;;;7.93;6.50;;;;;;;;;;5022077;28;20044;-73
2021/07/25 09:10:23;;;;;;;6.70;5.95;;;;;;;;;;5026725;28;20521;-73
2021/07/25 09:12:50;;;;;;;8.35;6.20;;;;;;;;;;5023187;28;20079;-72
2021/07/25 09:15:21;;;;;;;8.82;6.30;;;;;;;;;;5033077;28;20033;-73
2021/07/25 09:17:48;;;;;;;7.28;5.88;;;;;;;;;;5024454;28;20108;-73
2021/07/25 09:20:14;;;;;;;8.07;6.60;;;;;;;;;;5032730;28;20060;-73
2021/07/25 09:22:49;;;;;;;7.68;6.18;;;;;;;;;;5029281;28;20029;-72
2021/07/25 09:25:19;;;;;;;7.18;6.47;;;;;;;;;;5039477;28;20577;-73
2021/07/25 09:27:45;;;;;;;8.75;6.43;;;;;;;;;;5043192;28;20066;-75
2021/07/25 09:30:20;;;;;;;8.05;6.47;;;;;;;;;;5031034;28;20033;-73
2021/07/25 09:32:49;;;;;;;8.60;6.65;;;;;;;;;;5031842;28;20026;-74
2021/07/25 09:35:24;;;;;;;7.55;6.75;;;;;;;;;;5043412;28;20220;-74
2021/07/25 09:37:51;;;;;;;6.75;5.85;;;;;;;;;;5042510;28;20029;-73
2021/07/25 09:40:24;;;;;;;9.25;7.10;;;;;;;;;;5040695;28;20029;-73
2021/07/25 09:42:50;;;;;;;10.25;7.32;;;;;;;;;;5036794;28;20433;-73
2021/07/25 09:45:17;;;;;;;7.20;6.10;;;;;;;;;;5042143;28;20193;-73
2021/07/25 09:47:44;;;;;;;7.65;6.78;;;;;;;;;;5043564;28;20029;-72
2021/07/25 09:50:11;;;;;;;7.70;7.00;;;;;;;;;;5042224;28;20033;-73
2021/07/25 09:52:38;;;;;;;8.30;7.07;;;;;;;;;;5042128;28;20598;-74
2021/07/25 09:55:06;;;;;;;9.10;7.35;;;;;;;;;;5043076;28;20389;-74
2021/07/25 09:57:32;;;;;;;7.15;6.35;;;;;;;;;;5041890;28;20079;-73
2021/07/25 10:00:07;;;;;;;8.88;7.10;;;;;;;;;;5042973;28;20035;-74
2021/07/25 10:02:38;;;;;;;9.20;6.75;;;;;;;;;;5043112;28;20017;-73
2021/07/25 10:05:14;;;;;;;11.38;7.47;;;;;;;;;;5042982;28;20036;-73
2021/07/25 10:07:44;;;;;;;9.07;6.70;;;;;;;;;;5041443;28;20037;-74
2021/07/25 10:10:12;;;;;;;15.52;6.95;;;;;;;;;;5022465;28;20038;-73
2021/07/25 10:12:42;;;;;;;7.13;6.43;;;;;;;;;;5030381;28;20461;-73
2021/07/25 10:15:09;;;;;;;7.38;6.65;;;;;;;;;;5030951;28;20034;-74
2021/07/25 10:17:39;;;;;;;9.45;7.00;;;;;;;;;;5037119;28;20031;-74
2021/07/25 10:20:07;;;;;;;8.88;6.93;;;;;;;;;;5042436;28;20091;-73
2021/07/25 10:22:35;;;;;;;11.57;7.18;;;;;;;;;;5014778;28;20025;-73
2021/07/25 10:25:03;;;;;;;7.13;6.43;;;;;;;;;;5043088;28;20104;-74
2021/07/25 10:27:31;;;;;;;9.73;6.43;;;;;;;;;;5023547;28;20029;-73
2021/07/25 10:30:00;;;;;;;9.48;6.72;;;;;;;;;;5018730;28;20445;-74
2021/07/25 10:32:26;;;;;;;7.15;5.93;;;;;;;;;;5019816;28;20032;-74
2021/07/25 10:34:55;;;;;;;6.70;6.03;;;;;;;;;;5022168;28;20029;-74
2021/07/25 10:37:21;;;;;;;6.15;5.55;;;;;;;;;;5026373;28;20018;-73
2021/07/25 10:39:52;;;;;;;6.65;5.97;;;;;;;;;;5029411;28;20429;-74
2021/07/25 10:42:20;;;;;;;6.60;5.90;;;;;;;;;;5022975;28;20079;-74
2021/07/25 10:44:46;;;;;;;8.82;6.03;;;;;;;;;;5028276;28;20433;-73
2021/07/25 10:47:22;;;;;;;9.65;5.93;;;;;;;;;;5025750;28;20096;-73
2021/07/25 10:50:00;;;;;;;7.07;4.90;;;;;;;;;;5028521;28;20241;-73
2021/07/25 10:52:27;;;;;;;9.02;5.15;;;;;;;;;;5021908;28;20032;-73
2021/07/25 10:54:54;;;;;;;5.65;4.95;;;;;;;;;;5022313;28;20025;-73
2021/07/25 10:57:20;;;;;;;6.88;4.72;;;;;;;;;;5025177;28;20041;-74
2021/07/25 10:59:46;;;;;;;5.57;5.07;;;;;;;;;;5027809;28;20021;-72
2021/07/25 11:02:22;;;;;;;8.00;6.68;;;;;;;;;;5025540;28;20075;-72
2021/07/25 11:04:51;;;;;;;8.32;7.32;;;;;;;;;;5021563;28;20025;-73
2021/07/25 11:07:23;;;;;;;13.88;8.00;;;;;;;;;;5024629;28;20029;-72
2021/07/25 11:09:56;;;;;;;7.18;6.45;;;;;;;;;;5025907;28;20040;-73
2021/07/25 11:12:22;;;;;;;7.45;6.75;;;;;;;;;;5024305;28;20502;-72
2021/07/25 11:14:57;;;;;;;7.63;6.35;;;;;;;;;;5026273;28;20372;-73
2021/07/25 11:17:42;;;;;;;7.78;6.20;;;;;;;;;;5025605;28;20033;-72
2021/07/25 11:20:08;;;;;;;8.43;6.63;;;;;;;;;;5015924;28;20050;-73
2021/07/25 11:22:43;;;;;;;7.70;6.78;;;;;;;;;;5025381;28;20913;-72
2021/07/25 11:25:10;;;;;;;8.55;6.35;;;;;;;;;;5025068;28;20741;-72
2021/07/25 11:27:48;;;;;;;10.02;6.38;;;;;;;;;;5025722;28;20033;-74
2021/07/25 11:30:34;;;;;;;7.60;6.55;;;;;;;;;;5018181;28;20037;-71
2021/07/25 11:33:00;;;;;;;7.75;6.63;;;;;;;;;;5024118;28;20028;-71
2021/07/25 11:35:26;;;;;;;12.80;5.95;;;;;;;;;;5025973;28;20041;-71
2021/07/25 11:37:53;;;;;;;6.25;5.65;;;;;;;;;;5025438;28;20060;-72
2021/07/25 11:40:24;;;;;;;6.63;5.38;;;;;;;;;;5028650;28;20025;-74
2021/07/25 11:42:50;;;;;;;;;;;;;;;;;;5024705;28;20022;-73
2021/07/25 11:45:16;;;;;;;5.95;5.20;;;;;;;;;;5027158;28;19909;-72
2021/07/25 11:47:42;;;;;;;6.82;4.63;;;;;;;;;;5024194;28;20536;-72
2021/07/25 11:50:09;;;;;;;6.32;4.97;;;;;;;;;;5019464;28;20040;-71
2021/07/25 11:52:35;;;;;;;5.00;4.40;;;;;;;;;;5024418;28;20029;-72
2021/07/25 11:55:01;;;;;;;7.43;5.35;;;;;;;;;;5026244;28;20079;-71
2021/07/25 11:57:28;;;;;;;5.68;5.15;;;;;;;;;;5022824;28;20087;-71
2021/07/25 12:00:01;;;;;;;6.88;5.30;;;;;;;;;;5024284;28;20246;-71
2021/07/25 12:02:28;;;;;;;6.18;5.18;;;;;;;;;;5015920;28;20033;-71
2021/07/25 12:04:58;;;;;;;6.28;5.20;;;;;;;;;;5026713;28;20034;-71
2021/07/25 12:07:34;;;;;;;6.22;5.28;;;;;;;;;;5022413;28;20619;-72
2021/07/25 12:10:00;;;;;;;7.07;6.03;;;;;;;;;;5026589;28;20116;-71
2021/07/25 12:12:32;;;;;;;8.63;6.15;;;;;;;;;;5023441;28;20083;-71
2021/07/25 12:15:01;;;;;;;9.82;6.70;;;;;;;;;;5026394;28;20053;-71
2021/07/25 12:17:49;;;;;;;6.72;6.07;;;;;;;;;;5022677;28;20125;-70
2021/07/25 12:20:16;;;;;;;7.32;6.53;;;;;;;;;;5025066;28;20049;-72
2021/07/25 12:22:54;;;;;;;8.63;5.85;;;;;;;;;;5022699;28;20036;-75
2021/07/25 12:25:20;;;;;;;6.50;5.90;;;;;;;;;;5026492;28;20165;-70
2021/07/25 12:27:46;;;;;;;6.88;5.75;;;;;;;;;;5024108;28;20111;-72
2021/07/25 12:30:13;;;;;;;7.00;6.22;;;;;;;;;;5027891;28;20044;-70
2021/07/25 12:32:40;;;;;;;11.35;6.95;;;;;;;;;;5023588;28;20033;-71
2021/07/25 12:35:09;;;;;;;6.93;5.97;;;;;;;;;;5027536;28;20025;-70
2021/07/25 12:37:41;;;;;;;7.45;6.18;;;;;;;;;;5022258;28;20497;-70
2021/07/25 12:40:18;;;;;;;8.25;5.68;;;;;;;;;;5026282;28;20428;-71
2021/07/25 12:42:48;;;;;;;6.15;5.55;;;;;;;;;;5025325;28;20029;-71
2021/07/25 12:45:32;;;;;;;6.88;6.18;;;;;;;;;;5019577;28;20033;-70
2021/07/25 12:48:11;;;;;;;8.52;5.75;;;;;;;;;;5020940;28;20036;-70
2021/07/25 12:50:45;;;;;;;9.15;5.43;;;;;;;;;;5021731;28;20113;-71
2021/07/25 12:53:17;;;;;;;6.90;6.15;;;;;;;;;;5020605;28;20032;-71
2021/07/25 12:55:47;;;;;;;7.25;5.65;;;;;;;;;;5024732;28;20037;-70
2021/07/25 12:58:13;;;;;;;9.38;6.28;;;;;;;;;;5027354;28;20036;-70
2021/07/25 13:00:51;;;;;;;8.45;5.70;;;;;;;;;;5024476;28;20029;-71
2021/07/25 13:06:02;;;;;;;6.63;5.90;;;;;;;;;;5024057;28;20056;-72
2021/07/25 13:08:28;;;;;;;6.40;5.57;;;;;;;;;;5023876;28;20029;-72
2021/07/25 13:10:54;;;;;;;7.05;5.70;;;;;;;;;;5033782;28;20028;-75
2021/07/25 13:13:21;;;;;;;8.13;5.90;;;;;;;;;;5025466;28;20554;-74
2021/07/25 13:15:47;;;;;;;8.57;5.75;;;;;;;;;;5025883;28;20041;-72
2021/07/25 13:18:13;;;;;;;6.55;5.95;;;;;;;;;;5025480;28;20040;-73
2021/07/25 13:20:39;;;;;;;7.60;5.40;;;;;;;;;;5016081;28;20447;-73
2021/07/25 13:23:05;;;;;;;7.72;5.68;;;;;;;;;;5026486;28;20048;-73
2021/07/25 13:25:31;;;;;;;6.88;6.00;;;;;;;;;;5024675;28;20553;-74
2021/07/25 13:27:57;;;;;;;7.65;5.45;;;;;;;;;;5028923;28;20891;-75
2021/07/25 13:30:24;;;;;;;6.47;5.85;;;;;;;;;;5033109;28;20033;-75
2021/07/25 13:32:50;;;;;;;9.27;6.00;;;;;;;;;;5024793;28;20458;-73
2021/07/25 13:35:16;;;;;;;8.07;6.00;;;;;;;;;;5030334;28;20036;-78
2021/07/25 13:37:42;;;;;;;6.55;5.82;;;;;;;;;;5021113;28;20025;-73
2021/07/25 13:40:09;;;;;;;8.43;6.25;;;;;;;;;;5032123;28;20028;-72
2021/07/25 13:42:35;;;;;;;7.72;6.97;;;;;;;;;;5025527;28;20026;-72
2021/07/25 13:45:03;;;;;;;7.55;6.75;;;;;;;;;;5026712;28;20135;-70
2021/07/25 13:47:29;;;;;;;11.52;6.88;;;;;;;;;;5026809;28;20021;-70
2021/07/25 13:49:58;;;;;;;9.40;6.65;;;;;;;;;;5027823;28;20029;-71
2021/07/25 13:52:24;;;;;;;12.05;6.43;;;;;;;;;;5027000;28;20100;-71
2021/07/25 13:54:51;;;;;;;9.45;6.47;;;;;;;;;;5022054;28;20017;-73
2021/07/25 13:57:17;;;;;;;9.18;6.68;;;;;;;;;;5024142;28;20040;-70
2021/07/25 13:59:43;;;;;;;8.20;6.55;;;;;;;;;;5023933;28;20048;-71
2021/07/25 14:02:09;;;;;;;8.63;6.75;;;;;;;;;;5032129;28;20044;-71
2021/07/25 14:04:35;;;;;;;7.43;6.13;;;;;;;;;;5027204;28;20045;-70
2021/07/25 14:07:01;;;;;;;7.45;6.63;;;;;;;;;;5027618;28;20033;-70
2021/07/25 14:09:29;;;;;;;8.45;6.55;;;;;;;;;;5027942;28;20061;-72
2021/07/25 14:11:55;;;;;;;7.75;6.40;;;;;;;;;;5026570;28;20373;-71
2021/07/25 14:14:21;;;;;;;11.25;7.47;;;;;;;;;;5029548;28;20142;-71
2021/07/25 14:16:48;;;;;;;7.60;6.15;;;;;;;;;;5029979;28;20108;-71
2021/07/25 14:19:17;;;;;;;7.07;6.38;;;;;;;;;;5025242;28;20110;-71
2021/07/25 14:21:44;;;;;;;7.13;6.43;;;;;;;;;;5033327;28;20024;-71
2021/07/25 14:24:10;;;;;;;8.57;6.70;;;;;;;;;;5023981;28;20482;-71
2021/07/25 14:26:36;;;;;;;7.32;6.63;;;;;;;;;;5031668;28;20033;-71
2021/07/25 14:29:03;;;;;;;7.68;6.60;;;;;;;;;;5022690;28;20029;-70
2021/07/25 14:31:29;;;;;;;6.97;6.15;;;;;;;;;;5030066;28;20090;-70
2021/07/25 14:33:55;;;;;;;9.77;6.90;;;;;;;;;;5026007;28;20531;-70
2021/07/25 14:36:21;;;;;;;9.73;7.05;;;;;;;;;;5026927;28;20052;-71
2021/07/25 14:38:50;;;;;;;9.23;7.13;;;;;;;;;;5025960;28;20080;-70
2021/07/25 14:41:17;;;;;;;8.15;6.97;;;;;;;;;;5023088;28;20036;-70
2021/07/25 14:43:43;;;;;;;7.55;5.82;;;;;;;;;;5033631;28;20033;-70
2021/07/25 14:46:09;;;;;;;7.15;6.45;;;;;;;;;;5024535;28;20033;-70
2021/07/25 14:48:36;;;;;;;7.90;6.15;;;;;;;;;;5026823;28;20108;-70